createdAt,value
2018-06-24T00:00:07.289Z,8.50
2018-06-24T00:02:35.382Z,7.40
2018-06-24T00:05:03.520Z,8.40
2018-06-24T00:07:31.769Z,7.47
2018-06-24T00:09:59.892Z,7.30
2018-06-24T00:12:28.008Z,6.90
2018-06-24T00:14:56.278Z,7.60
2018-06-24T00:17:24.514Z,7.20
2018-06-24T00:19:53.069Z,6.50
2018-06-24T00:22:22.239Z,7.62
2018-06-24T00:24:50.337Z,9.37
2018-06-24T00:27:18.457Z,7.80
2018-06-24T00:29:46.616Z,7.50
2018-06-24T00:32:14.701Z,6.97
2018-06-24T00:34:42.797Z,6.93
2018-06-24T00:37:11.184Z,8.00
2018-06-24T00:39:39.242Z,7.87
2018-06-24T00:42:07.318Z,7.60
2018-06-24T00:44:35.701Z,7.00
2018-06-24T00:47:03.847Z,7.30
2018-06-24T00:49:31.968Z,7.37
2018-06-24T00:52:00.054Z,7.00
2018-06-24T00:54:28.139Z,6.53
2018-06-24T00:56:56.499Z,7.20
2018-06-24T00:59:36.042Z,6.93
2018-06-24T01:02:04.239Z,7.70
2018-06-24T01:04:32.298Z,7.70
2018-06-24T01:07:00.592Z,7.40
2018-06-24T01:09:28.696Z,6.50
2018-06-24T01:11:56.885Z,6.77
2018-06-24T01:14:24.971Z,6.90
2018-06-24T01:16:53.058Z,7.70
2018-06-24T01:19:21.174Z,7.30
2018-06-24T01:21:49.241Z,7.20
2018-06-24T01:24:17.669Z,6.90
2018-06-24T01:26:45.759Z,7.00
2018-06-24T01:29:13.867Z,6.93
2018-06-24T01:31:42.012Z,6.60
2018-06-24T01:34:10.082Z,7.47
2018-06-24T01:36:38.178Z,6.50
2018-06-24T01:39:06.790Z,7.60
2018-06-24T01:41:34.868Z,7.33
2018-06-24T01:44:03.043Z,8.00
2018-06-24T01:46:31.111Z,6.70
2018-06-24T01:48:59.280Z,7.60
2018-06-24T01:51:27.378Z,7.05
2018-06-24T01:53:55.834Z,7.37
2018-06-24T01:56:23.982Z,6.50
2018-06-24T01:58:52.736Z,6.00
2018-06-24T02:01:20.892Z,6.60
2018-06-24T02:03:48.973Z,6.93
2018-06-24T02:06:17.108Z,6.40
2018-06-24T02:08:45.180Z,6.33
2018-06-24T02:11:13.288Z,6.03
2018-06-24T02:13:41.393Z,6.30
2018-06-24T02:16:09.565Z,7.03
2018-06-24T02:18:38.226Z,6.85
2018-06-24T02:21:06.369Z,6.53
2018-06-24T02:23:34.450Z,7.57
2018-06-24T02:26:02.563Z,6.25
2018-06-24T02:28:30.815Z,6.70
2018-06-24T02:30:58.956Z,7.20
2018-06-24T02:33:27.045Z,6.40
2018-06-24T02:35:55.138Z,6.87
2018-06-24T02:38:23.212Z,7.47
2018-06-24T02:40:51.360Z,7.07
2018-06-24T02:43:19.528Z,7.30
2018-06-24T02:45:47.755Z,7.30
2018-06-24T02:48:15.836Z,8.27
2018-06-24T02:50:43.974Z,8.10
2018-06-24T02:53:12.071Z,7.97
2018-06-24T02:55:40.189Z,6.90
2018-06-24T02:58:08.333Z,7.53
2018-06-24T03:00:36.459Z,8.10
2018-06-24T03:03:04.586Z,6.67
2018-06-24T03:05:32.698Z,7.63
2018-06-24T03:08:00.839Z,7.78
2018-06-24T03:10:28.995Z,9.68
2018-06-24T03:12:57.381Z,7.70
2018-06-24T03:15:25.600Z,8.20
2018-06-24T03:17:53.930Z,7.37
2018-06-24T03:20:23.080Z,7.75
2018-06-24T03:22:51.237Z,7.17
2018-06-24T03:25:19.410Z,7.43
2018-06-24T03:27:47.531Z,7.87
2018-06-24T03:30:15.841Z,8.20
2018-06-24T03:32:44.102Z,7.43
2018-06-24T03:35:12.317Z,7.40
2018-06-24T03:37:40.649Z,8.03
2018-06-24T03:40:08.821Z,8.45
2018-06-24T03:42:37.022Z,7.80
2018-06-24T03:45:05.618Z,7.77
2018-06-24T03:47:33.739Z,8.10
2018-06-24T03:50:01.865Z,6.90
2018-06-24T03:52:30.041Z,8.40
2018-06-24T03:54:58.213Z,7.33
2018-06-24T03:57:26.303Z,7.03
2018-06-24T03:59:54.516Z,8.00
2018-06-24T04:02:23.299Z,6.80
2018-06-24T04:04:51.468Z,6.93
2018-06-24T04:07:19.494Z,7.47
2018-06-24T04:09:47.630Z,7.27
2018-06-24T04:12:15.750Z,7.90
2018-06-24T04:14:43.840Z,7.43
2018-06-24T04:17:11.933Z,7.53
2018-06-24T04:19:40.066Z,7.85
2018-06-24T04:22:08.305Z,7.35
2018-06-24T04:24:37.031Z,7.10
2018-06-24T04:27:05.278Z,7.10
2018-06-24T04:29:33.358Z,7.47
2018-06-24T04:32:01.491Z,6.97
2018-06-24T04:34:29.675Z,7.53
2018-06-24T04:36:58.109Z,7.67
2018-06-24T04:39:26.221Z,8.00
2018-06-24T04:41:54.374Z,6.63
2018-06-24T04:45:50.354Z,7.23
2018-06-24T04:48:18.700Z,7.40
2018-06-24T04:50:46.816Z,7.90
2018-06-24T04:53:14.954Z,7.30
2018-06-24T04:55:43.159Z,7.40
2018-06-24T04:58:11.280Z,7.62
2018-06-24T05:00:39.453Z,7.97
2018-06-24T05:03:07.612Z,7.93
2018-06-24T05:05:35.738Z,7.77
2018-06-24T05:08:03.894Z,7.53
2018-06-24T05:10:32.271Z,7.67
2018-06-24T05:13:00.429Z,7.47
2018-06-24T05:15:28.588Z,7.40
2018-06-24T05:17:56.693Z,7.73
2018-06-24T05:20:24.918Z,6.90
2018-06-24T05:22:53.856Z,7.33
2018-06-24T05:25:21.944Z,8.30
2018-06-24T05:27:50.015Z,6.97
2018-06-24T05:30:18.797Z,7.37
2018-06-24T05:32:46.222Z,8.23
2018-06-24T05:35:14.502Z,8.03
2018-06-24T05:37:42.638Z,6.97
2018-06-24T05:40:10.662Z,7.00
2018-06-24T05:42:39.262Z,7.83
2018-06-24T05:45:07.338Z,7.47
2018-06-24T05:47:35.431Z,6.85
2018-06-24T05:50:03.487Z,7.58
2018-06-24T05:52:31.570Z,7.63
2018-06-24T05:54:59.702Z,8.07
2018-06-24T05:57:27.766Z,8.07
2018-06-24T05:59:56.023Z,7.23
2018-06-24T06:02:24.076Z,7.80
2018-06-24T06:04:52.130Z,7.00
2018-06-24T06:07:20.270Z,7.83
2018-06-24T06:09:48.410Z,9.10
2018-06-24T06:12:16.495Z,7.93
2018-06-24T06:14:44.571Z,8.50
2018-06-24T06:17:12.640Z,8.17
2018-06-24T06:19:40.975Z,7.50
2018-06-24T06:22:09.020Z,8.28
2018-06-24T06:24:37.071Z,8.20
2018-06-24T06:27:05.521Z,8.00
2018-06-24T06:29:33.737Z,8.28
2018-06-24T06:32:01.888Z,7.78
2018-06-24T06:34:30.059Z,7.47
2018-06-24T06:36:58.370Z,7.17
2018-06-24T06:39:26.543Z,7.00
2018-06-24T06:41:54.650Z,7.13
2018-06-24T06:44:22.799Z,6.90
2018-06-24T06:46:51.070Z,7.20
2018-06-24T06:49:19.248Z,7.37
2018-06-24T06:51:47.446Z,6.93
2018-06-24T06:54:15.566Z,6.77
2018-06-24T06:56:44.626Z,6.87
2018-06-24T06:59:12.762Z,6.13
2018-06-24T07:01:40.900Z,5.83
2018-06-24T07:04:09.119Z,6.20
2018-06-24T07:06:37.250Z,6.28
2018-06-24T07:09:07.587Z,6.00
2018-06-24T07:11:35.771Z,6.00
2018-06-24T07:14:03.898Z,6.30
2018-06-24T07:16:31.995Z,5.23
2018-06-24T07:19:00.266Z,4.70
2018-06-24T07:21:28.386Z,4.65
2018-06-24T07:23:56.587Z,4.80
2018-06-24T07:26:24.810Z,4.50
2018-06-24T07:28:52.975Z,4.30
2018-06-24T07:31:21.158Z,3.50
2018-06-24T07:33:49.382Z,4.10
2018-06-24T07:36:18.096Z,3.80
2018-06-24T07:38:46.437Z,3.67
2018-06-24T07:41:14.711Z,3.60
2018-06-24T07:43:42.855Z,3.77
2018-06-24T07:46:10.960Z,3.77
2018-06-24T07:48:39.322Z,4.23
2018-06-24T07:51:07.425Z,2.80
2018-06-24T07:53:35.548Z,3.33
2018-06-24T07:56:03.679Z,3.83
2018-06-24T07:58:31.831Z,4.55
2018-06-24T08:01:00.125Z,3.93
2018-06-24T08:03:28.229Z,4.70
2018-06-24T08:05:56.367Z,5.22
2018-06-24T08:08:24.456Z,4.23
2018-06-24T08:10:52.663Z,4.80
2018-06-24T08:13:20.938Z,5.03
2018-06-24T08:15:49.067Z,6.30
2018-06-24T08:18:17.229Z,5.90
2018-06-24T08:20:45.355Z,5.10
2018-06-24T08:23:13.453Z,4.72
2018-06-24T08:25:41.912Z,4.37
2018-06-24T08:28:10.479Z,5.20
2018-06-24T08:30:39.400Z,5.87
2018-06-24T08:33:07.679Z,5.08
2018-06-24T08:35:35.927Z,5.53
2018-06-24T08:38:04.142Z,5.60
2018-06-24T08:40:32.236Z,4.50
2018-06-24T08:43:00.374Z,5.50
2018-06-24T08:45:28.515Z,6.90
2018-06-24T08:47:56.672Z,5.70
2018-06-24T08:50:24.792Z,6.07
2018-06-24T08:52:52.938Z,7.13
2018-06-24T08:55:21.344Z,7.40
2018-06-24T08:57:49.469Z,7.53
2018-06-24T09:00:17.758Z,7.33
2018-06-24T09:02:45.888Z,7.57
2018-06-24T09:05:14.006Z,8.40
2018-06-24T09:07:42.202Z,7.40
2018-06-24T09:10:10.520Z,7.47
2018-06-24T09:12:38.655Z,8.33
2018-06-24T09:15:06.777Z,7.03
2018-06-24T09:17:34.965Z,8.47
2018-06-24T09:20:03.551Z,7.50
2018-06-24T09:22:31.714Z,8.20
2018-06-24T09:24:59.834Z,8.33
2018-06-24T09:27:29.594Z,8.80
2018-06-24T09:29:57.674Z,8.73
2018-06-24T09:32:25.802Z,9.77
2018-06-24T09:34:54.748Z,8.67
2018-06-24T09:37:23.974Z,10.97
2018-06-24T09:39:52.027Z,10.07
2018-06-24T09:42:20.117Z,10.27
2018-06-24T09:44:48.263Z,12.80
2018-06-24T09:47:16.417Z,9.17
2018-06-24T09:49:44.493Z,9.00
2018-06-24T09:52:12.666Z,10.20
2018-06-24T09:54:40.739Z,9.78
2018-06-24T09:57:08.887Z,9.70
2018-06-24T09:59:36.983Z,10.90
2018-06-24T10:02:05.172Z,11.00
2018-06-24T10:04:33.275Z,11.83
2018-06-24T10:07:01.408Z,10.87
2018-06-24T10:09:29.561Z,10.95
2018-06-24T10:11:57.643Z,10.90
2018-06-24T10:14:25.741Z,10.90
2018-06-24T10:16:53.957Z,11.20
2018-06-24T10:19:22.081Z,10.90
2018-06-24T10:21:50.118Z,11.20
2018-06-24T10:24:18.250Z,11.97
2018-06-24T10:26:46.475Z,14.03
2018-06-24T10:29:14.639Z,12.37
2018-06-24T10:31:42.865Z,13.10
2018-06-24T10:34:11.029Z,12.90
2018-06-24T10:36:39.320Z,12.90
2018-06-24T10:39:09.722Z,12.07
2018-06-24T10:41:37.850Z,12.95
2018-06-24T10:44:06.166Z,12.43
2018-06-24T10:46:34.945Z,12.13
2018-06-24T10:49:03.113Z,12.70
2018-06-24T10:51:31.391Z,12.47
2018-06-24T10:53:59.755Z,10.57
2018-06-24T10:56:27.882Z,11.00
2018-06-24T10:58:57.388Z,10.77
2018-06-24T11:01:25.516Z,12.40
2018-06-24T11:03:57.412Z,11.43
2018-06-24T11:06:25.807Z,11.30
2018-06-24T11:08:54.064Z,10.27
2018-06-24T11:11:22.839Z,11.30
2018-06-24T11:13:52.650Z,9.97
2018-06-24T11:16:21.362Z,10.20
2018-06-24T11:18:49.536Z,10.03
2018-06-24T11:21:17.914Z,9.63
2018-06-24T11:23:46.149Z,9.13
2018-06-24T11:26:14.340Z,10.40
2018-06-24T11:28:42.683Z,8.80
2018-06-24T11:31:11.208Z,9.70
2018-06-24T11:33:39.441Z,8.63
2018-06-24T11:36:07.754Z,10.90
2018-06-24T11:38:35.899Z,9.90
2018-06-24T11:41:04.012Z,9.83
2018-06-24T11:43:32.589Z,9.60
2018-06-24T11:46:00.715Z,8.65
2018-06-24T11:48:28.928Z,8.70
2018-06-24T11:50:57.115Z,8.10
2018-06-24T11:53:25.482Z,9.60
2018-06-24T11:55:53.796Z,8.50
2018-06-24T11:58:21.928Z,8.87
2018-06-24T12:00:50.053Z,7.93
2018-06-24T12:03:18.691Z,8.27
2018-06-24T12:05:46.862Z,7.77
2018-06-24T12:08:15.114Z,8.20
2018-06-24T12:10:43.582Z,7.35
2018-06-24T12:13:11.663Z,7.83
2018-06-24T12:15:39.772Z,7.28
2018-06-24T12:18:08.021Z,6.67
2018-06-24T12:20:36.166Z,6.25
2018-06-24T12:23:04.288Z,5.63
2018-06-24T12:25:32.414Z,6.42
2018-06-24T12:28:00.765Z,5.04
2018-06-24T12:30:29.057Z,4.90
2018-06-24T12:32:57.287Z,6.47
2018-06-24T12:35:26.756Z,5.96
2018-06-24T12:37:55.562Z,5.40
2018-06-24T12:40:32.307Z,5.80
2018-06-24T12:43:01.575Z,5.12
2018-06-24T12:45:29.746Z,5.00
2018-06-24T12:47:58.048Z,5.70
2018-06-24T12:50:26.195Z,4.00
2018-06-24T12:52:54.667Z,5.27
2018-06-24T12:55:22.884Z,5.70
2018-06-24T12:57:51.143Z,6.10
2018-06-24T13:00:19.856Z,4.97
2018-06-24T13:02:47.437Z,6.00
2018-06-24T13:05:15.523Z,5.17
2018-06-24T13:07:43.747Z,5.37
2018-06-24T13:10:11.985Z,5.20
2018-06-24T13:12:40.069Z,4.83
2018-06-24T13:15:08.378Z,4.93
2018-06-24T13:17:36.478Z,4.27
2018-06-24T13:20:04.991Z,5.70
2018-06-24T13:22:33.139Z,4.97
2018-06-24T13:25:01.364Z,4.67
2018-06-24T13:27:29.564Z,5.10
2018-06-24T13:29:57.660Z,5.50
2018-06-24T13:32:25.773Z,5.47
2018-06-24T13:34:53.890Z,5.60
2018-06-24T13:37:22.082Z,5.97
2018-06-24T13:39:50.198Z,5.07
2018-06-24T13:42:18.374Z,4.80
2018-06-24T13:44:46.467Z,4.77
2018-06-24T13:47:14.898Z,4.90
2018-06-24T13:49:43.082Z,5.60
2018-06-24T13:52:11.186Z,5.20
2018-06-24T13:54:39.299Z,4.53
2018-06-24T13:57:08.419Z,4.80
2018-06-24T13:59:36.578Z,4.73
2018-06-24T14:02:05.446Z,4.67
2018-06-24T14:04:33.558Z,3.95
2018-06-24T14:07:01.700Z,4.60
2018-06-24T14:09:29.834Z,4.07
2018-06-24T14:12:20.067Z,4.30
2018-06-24T14:15:01.709Z,4.20
2018-06-24T14:17:29.995Z,4.15
2018-06-24T14:19:58.308Z,4.50
2018-06-24T14:22:26.456Z,4.10
2018-06-24T14:24:54.590Z,4.70
2018-06-24T14:27:22.998Z,4.50
2018-06-24T14:29:51.119Z,5.50
2018-06-24T14:32:19.223Z,5.27
2018-06-24T14:34:47.302Z,5.40
2018-06-24T14:37:15.386Z,5.27
2018-06-24T14:39:43.530Z,5.60
2018-06-24T14:42:11.754Z,6.00
2018-06-24T14:44:39.870Z,12.40
2018-06-24T14:47:07.948Z,5.50
2018-06-24T14:49:36.101Z,5.60
2018-06-24T14:52:04.382Z,6.30
2018-06-24T14:54:32.472Z,5.17
2018-06-24T14:57:00.542Z,6.00
2018-06-24T14:59:29.691Z,6.30
2018-06-24T15:01:57.762Z,6.00
2018-06-24T15:04:26.251Z,6.07
2018-06-24T15:06:54.310Z,5.83
2018-06-24T15:09:22.462Z,6.50
2018-06-24T15:11:50.613Z,6.30
2018-06-24T15:14:18.684Z,6.70
2018-06-24T15:16:46.751Z,6.50
2018-06-24T15:19:14.979Z,6.67
2018-06-24T15:21:43.231Z,6.50
2018-06-24T15:24:11.735Z,6.20
2018-06-24T15:26:39.827Z,6.07
2018-06-24T15:29:07.939Z,6.80
2018-06-24T15:31:36.010Z,6.05
2018-06-24T15:34:04.246Z,6.25
2018-06-24T15:36:32.366Z,5.87
2018-06-24T15:39:01.656Z,5.30
2018-06-24T15:41:30.024Z,5.20
2018-06-24T15:43:58.138Z,5.27
2018-06-24T15:46:26.688Z,5.95
2018-06-24T15:48:55.374Z,5.30
2018-06-24T15:51:23.553Z,5.23
2018-06-24T15:53:51.591Z,5.90
2018-06-24T15:56:19.721Z,5.30
2018-06-24T15:58:47.847Z,4.77
2018-06-24T16:01:16.007Z,5.13
2018-06-24T16:03:44.148Z,4.97
2018-06-24T16:06:12.390Z,4.70
2018-06-24T16:08:40.453Z,4.92
2018-06-24T16:11:15.079Z,5.40
2018-06-24T16:13:43.210Z,4.67
2018-06-24T16:16:11.315Z,5.53
2018-06-24T16:18:42.007Z,5.17
2018-06-24T16:21:10.394Z,5.30
2018-06-24T16:23:38.367Z,5.10
2018-06-24T16:26:06.610Z,4.90
2018-06-24T16:28:34.779Z,4.33
2018-06-24T16:31:03.018Z,4.20
2018-06-24T16:33:31.191Z,4.05
2018-06-24T16:35:59.631Z,4.10
2018-06-24T16:38:27.734Z,4.67
2018-06-24T16:40:56.710Z,4.70
2018-06-24T16:43:25.191Z,4.00
2018-06-24T16:45:53.426Z,4.00
2018-06-24T16:48:21.630Z,3.70
2018-06-24T16:50:49.756Z,3.35
2018-06-24T16:53:17.867Z,3.90
2018-06-24T16:55:46.009Z,3.40
2018-06-24T16:58:14.240Z,3.30
2018-06-24T17:00:42.369Z,3.90
2018-06-24T17:03:10.494Z,4.13
2018-06-24T17:05:39.422Z,3.63
2018-06-24T17:08:08.155Z,3.62
2018-06-24T17:10:36.518Z,8.50
2018-06-24T17:13:04.781Z,4.10
2018-06-24T17:15:32.923Z,3.65
2018-06-24T17:18:01.173Z,3.55
2018-06-24T17:20:29.312Z,3.00
2018-06-24T17:22:57.482Z,3.30
2018-06-24T17:25:26.204Z,3.67
2018-06-24T17:27:54.334Z,3.77
2018-06-24T17:30:22.487Z,4.00
2018-06-24T17:32:50.677Z,4.80
2018-06-24T17:35:18.909Z,3.60
2018-06-24T17:37:47.058Z,4.50
2018-06-24T17:40:15.189Z,3.53
2018-06-24T17:42:44.185Z,4.03
2018-06-24T17:45:12.318Z,4.30
2018-06-24T17:47:40.631Z,4.57
2018-06-24T17:50:08.815Z,3.67
2018-06-24T17:52:36.897Z,4.33
2018-06-24T17:55:05.163Z,4.67
2018-06-24T17:57:33.379Z,4.13
2018-06-24T18:00:02.844Z,3.50
2018-06-24T18:02:31.045Z,4.23
2018-06-24T18:04:59.173Z,4.70
2018-06-24T18:07:27.328Z,4.30
2018-06-24T18:09:55.515Z,3.97
2018-06-24T18:12:24.751Z,4.17
2018-06-24T18:14:53.893Z,4.30
2018-06-24T18:17:25.894Z,4.03
2018-06-24T18:19:55.210Z,4.53
2018-06-24T18:22:25.470Z,3.87
2018-06-24T18:24:55.144Z,4.90
2018-06-24T18:27:24.669Z,4.50
2018-06-24T18:29:54.351Z,4.70
2018-06-24T18:32:23.790Z,4.17
2018-06-24T18:34:53.999Z,4.27
2018-06-24T18:37:24.363Z,4.80
2018-06-24T18:39:53.746Z,3.60
2018-06-24T18:42:22.991Z,4.30
2018-06-24T18:44:52.133Z,3.47
2018-06-24T18:47:21.537Z,3.60
2018-06-24T18:49:50.884Z,3.43
2018-06-24T18:52:20.608Z,3.60
2018-06-24T18:54:50.611Z,3.23
2018-06-24T18:57:20.091Z,3.70
2018-06-24T18:59:49.326Z,3.70
2018-06-24T19:02:18.732Z,3.53
2018-06-24T19:04:48.049Z,2.73
2018-06-24T19:07:16.916Z,2.92
2018-06-24T19:09:47.731Z,3.77
2018-06-24T19:12:15.883Z,3.37
2018-06-24T19:14:44.119Z,3.80
2018-06-24T19:17:12.227Z,4.90
2018-06-24T19:19:40.343Z,3.70
2018-06-24T19:22:08.508Z,3.70
2018-06-24T19:24:36.671Z,3.27
2018-06-24T19:27:05.082Z,4.07
2018-06-24T19:29:33.249Z,3.35
2018-06-24T19:32:01.510Z,4.27
2018-06-24T19:34:29.756Z,4.17
2018-06-24T19:36:57.981Z,4.50
2018-06-24T19:39:26.303Z,3.70
2018-06-24T19:41:54.409Z,3.60
2018-06-24T19:44:22.534Z,3.90
2018-06-24T19:46:50.621Z,3.20
2018-06-24T19:49:18.729Z,3.00
2018-06-24T19:51:47.391Z,3.30
2018-06-24T19:54:15.665Z,3.63
2018-06-24T19:56:44.496Z,2.70
2018-06-24T19:59:12.753Z,2.60
2018-06-24T20:01:40.953Z,2.87
2018-06-24T20:04:15.286Z,2.87
2018-06-24T20:06:45.108Z,3.45
2018-06-24T20:09:13.531Z,2.97
2018-06-24T20:11:41.656Z,3.37
2018-06-24T20:14:09.784Z,3.40
2018-06-24T20:16:37.945Z,2.97
2018-06-24T20:19:06.429Z,3.00
2018-06-24T20:21:34.594Z,3.30
2018-06-24T20:24:02.697Z,2.85
2018-06-24T20:26:30.818Z,3.43
2018-06-24T20:28:58.886Z,3.17
2018-06-24T20:31:27.815Z,2.70
2018-06-24T20:33:55.874Z,2.50
2018-06-24T20:36:27.289Z,2.77
2018-06-24T20:38:55.547Z,2.60
2018-06-24T20:41:23.646Z,3.13
2018-06-24T20:43:51.764Z,3.37
2018-06-24T20:46:19.924Z,3.10
2018-06-24T20:48:48.119Z,3.10
2018-06-24T20:51:16.189Z,3.43
2018-06-24T20:53:44.362Z,3.52
2018-06-24T20:56:12.465Z,3.67
2018-06-24T20:58:40.515Z,4.70
2018-06-24T21:01:08.621Z,4.87
2018-06-24T21:03:36.719Z,4.70
2018-06-24T21:06:04.835Z,5.13
2018-06-24T21:08:33.220Z,5.20
2018-06-24T21:11:01.408Z,4.90
2018-06-24T21:13:29.487Z,4.87
2018-06-24T21:15:58.026Z,4.20
2018-06-24T21:18:26.120Z,3.87
2018-06-24T21:20:54.762Z,3.90
2018-06-24T21:23:22.873Z,4.00
2018-06-24T21:25:51.060Z,4.13
2018-06-24T21:28:19.241Z,3.83
2018-06-24T21:30:47.557Z,4.23
2018-06-24T21:33:15.836Z,3.90
2018-06-24T21:35:45.807Z,3.85
2018-06-24T21:38:13.890Z,4.12
2018-06-24T21:40:42.098Z,4.00
2018-06-24T21:43:10.541Z,4.47
2018-06-24T21:45:38.675Z,4.10
2018-06-24T21:48:07.178Z,3.70
2018-06-24T21:50:35.233Z,3.90
2018-06-24T21:53:04.034Z,4.40
2018-06-24T21:55:32.136Z,3.97
2018-06-24T21:58:00.310Z,3.73
2018-06-24T22:00:28.570Z,3.80
2018-06-24T22:02:58.107Z,3.03
2018-06-24T22:05:26.443Z,3.50
2018-06-24T22:07:54.681Z,3.27
2018-06-24T22:10:22.940Z,3.37
2018-06-24T22:12:51.242Z,3.10
2018-06-24T22:15:19.326Z,3.50
2018-06-24T22:17:47.478Z,3.23
2018-06-24T22:20:15.593Z,3.30
2018-06-24T22:22:43.745Z,3.17
2018-06-24T22:25:11.968Z,2.77
2018-06-24T22:27:40.709Z,3.17
2018-06-24T22:30:09.040Z,3.30
2018-06-24T22:32:37.138Z,2.85
2018-06-24T22:35:06.485Z,3.30
2018-06-24T22:37:34.583Z,2.93
2018-06-24T22:40:02.907Z,2.97
2018-06-24T22:42:31.007Z,3.40
2018-06-24T22:44:59.164Z,2.87
2018-06-24T22:47:27.413Z,7.17
2018-06-24T22:49:55.583Z,3.27
2018-06-24T22:52:23.866Z,2.50
2018-06-24T22:54:51.978Z,2.90
2018-06-24T22:57:20.132Z,3.00
2018-06-24T23:00:25.099Z,2.63
2018-06-24T23:02:53.210Z,3.17
2018-06-24T23:05:21.330Z,2.83
2018-06-24T23:07:49.475Z,2.60
2018-06-24T23:10:17.843Z,3.10
2018-06-24T23:12:45.949Z,3.20
2018-06-24T23:15:14.094Z,3.22
2018-06-24T23:17:42.195Z,2.83
2018-06-24T23:20:10.460Z,3.10
2018-06-24T23:22:39.426Z,2.80
2018-06-24T23:25:07.659Z,3.02
2018-06-24T23:27:35.860Z,2.92
2018-06-24T23:30:04.918Z,3.30
2018-06-24T23:32:33.241Z,3.40
2018-06-24T23:35:01.537Z,3.60
2018-06-24T23:37:29.988Z,3.03
2018-06-24T23:39:59.009Z,3.35
2018-06-24T23:42:27.149Z,3.07
2018-06-24T23:44:55.437Z,3.57
2018-06-24T23:47:23.791Z,3.43
2018-06-24T23:49:52.090Z,3.93
2018-06-24T23:52:20.243Z,3.57
2018-06-24T23:54:48.351Z,3.70
2018-06-24T23:57:16.489Z,3.70
2018-06-24T23:59:44.674Z,3.40
